Time;durP1;ratioP1;P1;durP2;ratioP2;P2;SDS_P1;SDS_P2;PMS_P1;PMS_P2;Temp;Humidity;BMP_temperature;BMP_pressure;BME280_temperature;BME280_humidity;BME280_pressure;Samples;Min_cycle;Max_cycle;Signal;HPM_P1;HPM_P2
2022/05/14 00:01:58;;;;;;;12.75;6.82;;;20.60;81.80;;;;;;5096464;28;20024;-67
2022/05/14 00:04:24;;;;;;;11.05;6.63;;;20.60;81.40;;;;;;5096276;28;20068;-66
2022/05/14 00:06:51;;;;;;;13.35;6.63;;;20.60;81.90;;;;;;5096061;28;20070;-67
2022/05/14 00:09:17;;;;;;;15.43;7.22;;;20.60;81.40;;;;;;5095872;28;20052;-66
2022/05/14 00:14:26;;;;;;;12.90;6.90;;;20.60;81.50;;;;;;5096247;28;20112;-66
2022/05/14 00:16:52;;;;;;;10.20;7.10;;;20.60;82.40;;;;;;5096041;28;20051;-66
2022/05/14 00:19:18;;;;;;;10.80;6.80;;;20.60;82.00;;;;;;5095723;28;20032;-66
2022/05/14 00:21:44;;;;;;;10.88;6.40;;;20.60;82.40;;;;;;5096036;28;20024;-66
2022/05/14 00:24:10;;;;;;;11.10;6.45;;;20.50;82.10;;;;;;5096048;28;20081;-66
2022/05/14 00:26:37;;;;;;;8.10;6.10;;;20.40;82.50;;;;;;5095800;28;20028;-66
2022/05/14 00:29:04;;;;;;;8.35;6.10;;;20.30;82.90;;;;;;5095800;28;20058;-66
2022/05/14 00:31:30;;;;;;;9.82;6.35;;;20.30;83.40;;;;;;5095550;28;20024;-66
2022/05/14 00:33:56;;;;;;;12.73;7.57;;;20.30;84.30;;;;;;5095610;28;20013;-66
2022/05/14 00:36:22;;;;;;;13.18;5.82;;;20.30;84.50;;;;;;5095699;28;20028;-66
2022/05/14 00:38:48;;;;;;;8.27;6.15;;;20.30;84.30;;;;;;5095561;28;20028;-66
2022/05/14 00:41:15;;;;;;;7.95;5.72;;;20.30;84.10;;;;;;5095714;28;20072;-66
2022/05/14 00:43:56;;;;;;;14.10;5.80;;;20.20;84.10;;;;;;5095360;28;20028;-66
2022/05/14 00:46:24;;;;;;;10.35;7.05;;;20.30;83.60;;;;;;5095669;28;20439;-66
2022/05/14 00:48:52;;;;;;;15.15;5.38;;;20.20;82.70;;;;;;5095161;28;20040;-66
2022/05/14 00:51:25;;;;;;;11.18;5.88;;;20.20;83.70;;;;;;5095024;28;20056;-66
2022/05/14 00:53:56;;;;;;;10.02;6.30;;;20.20;83.90;;;;;;5095371;28;20024;-67
2022/05/14 00:56:28;;;;;;;13.85;6.25;;;20.20;83.70;;;;;;5095184;28;20055;-66
2022/05/14 00:58:54;;;;;;;9.90;6.50;;;20.10;84.10;;;;;;5093122;28;20031;-66
2022/05/14 01:01:20;;;;;;;11.02;7.20;;;20.10;85.10;;;;;;5092209;28;20032;-66
2022/05/14 01:03:46;;;;;;;10.65;6.47;;;20.10;85.40;;;;;;5092409;28;20150;-67
2022/05/14 01:06:16;;;;;;;13.63;5.88;;;20.10;84.30;;;;;;5094618;28;20035;-67
2022/05/14 01:08:43;;;;;;;10.52;6.43;;;20.10;84.30;;;;;;5094647;28;20448;-66
2022/05/14 01:11:11;;;;;;;13.07;6.68;;;20.10;84.90;;;;;;5094920;28;20094;-66
2022/05/14 01:13:37;;;;;;;9.00;7.07;;;20.10;84.50;;;;;;5094761;28;20024;-67
2022/05/14 01:16:04;;;;;;;11.63;6.80;;;20.00;85.00;;;;;;5094773;28;20020;-67
2022/05/14 01:18:35;;;;;;;9.60;6.38;;;20.00;85.60;;;;;;5094866;28;20035;-66
2022/05/14 01:21:08;;;;;;;13.63;6.25;;;19.90;85.20;;;;;;5094321;28;20470;-66
2022/05/14 01:26:45;;;;;;;12.50;6.82;;;19.80;85.50;;;;;;5094775;28;20055;-66
2022/05/14 01:29:20;;;;;;;9.23;6.45;;;19.80;85.60;;;;;;5094092;28;20039;-66
2022/05/14 01:31:47;;;;;;;10.50;6.82;;;19.90;85.40;;;;;;5094685;28;20024;-66
2022/05/14 01:34:19;;;;;;;9.82;6.38;;;19.90;84.90;;;;;;5094455;28;20085;-66
2022/05/14 01:36:44;;;;;;;12.82;6.68;;;19.90;84.40;;;;;;5094066;28;20367;-66
2022/05/14 01:39:11;;;;;;;10.57;6.32;;;19.90;84.00;;;;;;5094196;28;20131;-67
2022/05/14 01:41:37;;;;;;;10.50;6.68;;;19.90;83.80;;;;;;5094430;28;20385;-66
2022/05/14 01:44:02;;;;;;;14.60;7.25;;;19.90;84.00;;;;;;5093798;28;20038;-66
2022/05/14 01:46:28;;;;;;;14.68;7.15;;;19.80;84.50;;;;;;5094159;28;20027;-66
2022/05/14 01:48:54;;;;;;;12.70;7.15;;;19.70;84.70;;;;;;5094340;28;20478;-66
2022/05/14 01:51:20;;;;;;;13.45;7.60;;;19.70;85.20;;;;;;5094193;28;20020;-66
2022/05/14 01:53:46;;;;;;;11.90;8.35;;;19.70;85.20;;;;;;5094147;28;20043;-66
2022/05/14 01:56:12;;;;;;;17.40;8.30;;;19.60;84.90;;;;;;5094040;28;20074;-66
2022/05/14 01:58:38;;;;;;;13.65;7.95;;;19.70;85.00;;;;;;5093978;28;20456;-66
2022/05/14 02:01:17;;;;;;;19.85;8.60;;;19.60;85.30;;;;;;5094145;28;20397;-66
2022/05/14 02:03:46;;;;;;;15.65;8.02;;;19.70;84.50;;;;;;5093371;28;20023;-66
2022/05/14 02:06:13;;;;;;;13.32;7.22;;;19.70;85.20;;;;;;5093867;28;20039;-70
2022/05/14 02:08:39;;;;;;;12.27;7.18;;;19.70;84.60;;;;;;5093463;28;20052;-67
2022/05/14 02:11:05;;;;;;;10.85;6.95;;;19.70;83.70;;;;;;5093645;28;20095;-66
2022/05/14 02:13:31;;;;;;;17.75;7.40;;;19.70;83.40;;;;;;5093883;28;20413;-66
2022/05/14 02:15:57;;;;;;;10.90;7.45;;;19.80;82.90;;;;;;5093603;28;20039;-66
2022/05/14 02:18:23;;;;;;;11.73;6.97;;;19.80;82.80;;;;;;5093223;28;20020;-66
2022/05/14 02:20:49;;;;;;;14.20;8.02;;;19.80;83.70;;;;;;5093680;28;20024;-66
2022/05/14 02:23:15;;;;;;;11.38;7.55;;;19.80;84.00;;;;;;5093422;28;20047;-66
2022/05/14 02:25:41;;;;;;;11.52;7.13;;;19.70;84.10;;;;;;5093418;28;20024;-66
2022/05/14 02:28:07;;;;;;;9.25;6.65;;;19.70;84.20;;;;;;5093499;28;20099;-66
2022/05/14 02:30:33;;;;;;;15.65;6.70;;;19.80;84.10;;;;;;5093635;28;20039;-66
2022/05/14 02:32:59;;;;;;;9.98;6.50;;;19.80;83.50;;;;;;5093517;28;20020;-72
2022/05/14 02:35:25;;;;;;;10.07;6.18;;;19.80;83.20;;;;;;5093422;28;20450;-66
2022/05/14 02:37:50;;;;;;;10.35;7.03;;;19.90;83.80;;;;;;5093352;28;20103;-66
2022/05/14 02:40:16;;;;;;;14.88;7.93;;;19.90;83.70;;;;;;5093292;28;20099;-67
2022/05/14 02:42:42;;;;;;;14.80;7.07;;;19.90;83.20;;;;;;5093316;28;20493;-67
2022/05/14 02:45:08;;;;;;;12.82;7.07;;;19.90;82.70;;;;;;5093549;28;20028;-67
2022/05/14 02:47:34;;;;;;;13.30;6.43;;;19.90;83.30;;;;;;5093064;28;20051;-66
2022/05/14 02:50:00;;;;;;;14.32;7.78;;;19.90;83.30;;;;;;5093369;28;20032;-67
2022/05/14 02:52:26;;;;;;;11.35;7.60;;;19.80;83.90;;;;;;5093384;28;20405;-67
2022/05/14 02:54:52;;;;;;;13.07;6.88;;;19.80;84.10;;;;;;5093432;28;20082;-67
2022/05/14 02:57:18;;;;;;;13.27;7.85;;;19.80;84.00;;;;;;5093135;28;20048;-65
2022/05/14 02:59:43;;;;;;;8.85;7.20;;;19.80;83.80;;;;;;5093218;28;20085;-65
2022/05/14 03:02:09;;;;;;;15.38;6.65;;;19.80;83.60;;;;;;5093160;28;20478;-65
2022/05/14 03:04:37;;;;;;;13.10;6.38;;;19.80;83.20;;;;;;5092860;28;20376;-65
2022/05/14 03:07:07;;;;;;;10.60;7.20;;;19.90;83.10;;;;;;5093277;28;20107;-65
2022/05/14 03:09:35;;;;;;;15.02;7.60;;;19.90;82.80;;;;;;5092758;28;20100;-66
2022/05/14 03:12:02;;;;;;;14.98;7.80;;;19.90;82.80;;;;;;5092858;28;20024;-65
2022/05/14 03:14:27;;;;;;;17.58;7.95;;;19.90;82.30;;;;;;5092837;28;20054;-65
2022/05/14 03:16:53;;;;;;;26.35;8.30;;;19.80;81.80;;;;;;5097089;28;20052;-71
2022/05/14 03:19:19;;;;;;;19.98;8.07;;;19.80;81.70;;;;;;5097060;28;20107;-65
2022/05/14 03:21:45;;;;;;;14.23;7.93;;;19.80;82.30;;;;;;5096954;28;20032;-66
2022/05/14 03:24:11;;;;;;;19.65;8.93;;;19.70;84.10;;;;;;5096891;28;20156;-66
2022/05/14 03:26:41;;;;;;;19.30;8.32;;;19.60;83.00;;;;;;5096747;28;20576;-65
2022/05/14 03:29:08;;;;;;;16.52;7.93;;;19.60;83.40;;;;;;5096591;28;20047;-65
2022/05/14 03:31:35;;;;;;;17.27;8.13;;;19.50;83.20;;;;;;5097083;28;20036;-66
2022/05/14 03:34:01;;;;;;;13.90;7.85;;;19.50;83.40;;;;;;5097036;28;20392;-66
2022/05/14 03:36:27;;;;;;;12.65;8.00;;;19.50;82.90;;;;;;5096591;28;20034;-66
2022/05/14 03:38:54;;;;;;;18.05;8.40;;;19.60;83.00;;;;;;5096475;28;20016;-66
2022/05/14 03:41:20;;;;;;;16.27;8.38;;;19.50;82.60;;;;;;5094481;28;20028;-66
2022/05/14 03:43:47;;;;;;;11.00;7.47;;;19.50;82.70;;;;;;5096070;28;20031;-64
2022/05/14 03:46:13;;;;;;;17.92;8.23;;;19.40;83.50;;;;;;5096251;28;20020;-64
2022/05/14 03:48:40;;;;;;;14.70;7.53;;;19.30;84.20;;;;;;5096119;28;20020;-65
2022/05/14 03:51:06;;;;;;;12.00;8.27;;;19.20;84.10;;;;;;5096006;28;20024;-65
2022/05/14 03:53:33;;;;;;;11.18;7.35;;;19.10;84.70;;;;;;5095553;28;20045;-65
2022/05/14 03:55:58;;;;;;;11.95;7.75;;;19.10;85.00;;;;;;5096033;28;20059;-65
2022/05/14 03:58:24;;;;;;;12.98;7.88;;;19.10;86.10;;;;;;5096009;28;20051;-64
2022/05/14 04:00:50;;;;;;;14.10;8.32;;;19.00;86.40;;;;;;5095994;28;20039;-65
2022/05/14 04:03:17;;;;;;;9.63;7.35;;;19.10;85.80;;;;;;5095750;28;20024;-65
2022/05/14 04:05:43;;;;;;;13.38;8.15;;;19.10;85.20;;;;;;5096380;28;20043;-65
2022/05/14 04:08:08;;;;;;;12.70;7.65;;;19.20;86.50;;;;;;5096270;28;20066;-66
2022/05/14 04:10:34;;;;;;;11.15;7.93;;;19.10;85.90;;;;;;5096224;28;20481;-65
2022/05/14 04:13:00;;;;;;;13.07;7.38;;;19.10;85.80;;;;;;5095855;28;20020;-66
2022/05/14 04:15:27;;;;;;;8.90;7.28;;;19.20;85.60;;;;;;5095820;28;20020;-66
2022/05/14 04:17:53;;;;;;;14.48;8.00;;;19.20;85.70;;;;;;5096059;28;20108;-65
2022/05/14 04:20:19;;;;;;;13.13;7.28;;;19.30;85.20;;;;;;5095879;28;20385;-65
2022/05/14 04:22:46;;;;;;;9.30;7.47;;;19.30;84.80;;;;;;5096149;28;20025;-66
2022/05/14 04:25:12;;;;;;;11.38;6.43;;;19.30;85.00;;;;;;5095878;28;20090;-65
2022/05/14 04:27:41;;;;;;;14.88;6.15;;;19.30;85.30;;;;;;5095009;28;20020;-65
2022/05/14 04:30:08;;;;;;;11.52;6.68;;;19.30;85.10;;;;;;5095575;28;20071;-65
2022/05/14 04:32:34;;;;;;;10.27;6.45;;;19.30;85.40;;;;;;5095875;28;20039;-65
2022/05/14 04:35:00;;;;;;;9.32;6.32;;;19.30;84.90;;;;;;5095555;28;20424;-65
2022/05/14 04:37:26;;;;;;;9.02;6.65;;;19.30;85.70;;;;;;5095714;28;20016;-66
2022/05/14 04:39:51;;;;;;;12.27;6.32;;;19.30;86.10;;;;;;5095525;28;20521;-65
2022/05/14 04:42:17;;;;;;;10.88;6.65;;;19.20;86.10;;;;;;5095319;28;20043;-65
2022/05/14 04:44:43;;;;;;;10.60;6.40;;;19.20;85.90;;;;;;5095372;28;20028;-65
2022/05/14 04:47:09;;;;;;;9.73;5.90;;;19.20;86.00;;;;;;5095388;28;20016;-65
2022/05/14 04:49:43;;;;;;;12.10;6.20;;;19.20;85.30;;;;;;5095513;28;20044;-65
2022/05/14 04:52:09;;;;;;;12.05;6.18;;;19.30;85.10;;;;;;5095445;28;20024;-65
2022/05/14 04:54:35;;;;;;;8.57;6.15;;;19.30;84.90;;;;;;5095191;28;20028;-66
2022/05/14 04:57:01;;;;;;;7.68;5.78;;;19.40;85.00;;;;;;5095245;28;20024;-66
2022/05/14 04:59:27;;;;;;;17.52;6.43;;;19.40;84.60;;;;;;5095161;28;20032;-66
2022/05/14 05:04:41;;;;;;;7.57;5.60;;;19.40;83.50;;;;;;5095409;28;20043;-66
2022/05/14 05:07:07;;;;;;;10.85;5.50;;;19.50;83.60;;;;;;5094973;28;20017;-66
2022/05/14 05:09:33;;;;;;;7.68;5.03;;;19.50;84.20;;;;;;5094714;28;20135;-65
2022/05/14 05:11:59;;;;;;;8.77;5.20;;;19.60;84.00;;;;;;5095081;28;20031;-65
2022/05/14 05:14:25;;;;;;;10.93;5.13;;;19.60;84.10;;;;;;5094867;28;20027;-65
2022/05/14 05:16:51;;;;;;;10.90;5.45;;;19.60;84.00;;;;;;5094871;28;20051;-65
2022/05/14 05:19:17;;;;;;;6.78;5.20;;;19.70;83.90;;;;;;5093447;28;20558;-65
2022/05/14 05:21:43;;;;;;;11.68;5.38;;;19.80;83.90;;;;;;5093492;28;20012;-65
2022/05/14 05:24:09;;;;;;;10.38;5.13;;;19.80;83.60;;;;;;5094739;28;20024;-65
2022/05/14 05:26:36;;;;;;;8.60;4.68;;;19.90;83.50;;;;;;5094319;28;20107;-65
2022/05/14 05:29:03;;;;;;;6.25;5.28;;;20.00;83.50;;;;;;5094541;28;20036;-66
2022/05/14 05:31:30;;;;;;;7.00;4.43;;;20.00;82.80;;;;;;5094515;28;20111;-66
2022/05/14 05:33:56;;;;;;;8.60;4.95;;;20.20;82.80;;;;;;5094346;28;20028;-65
2022/05/14 05:36:21;;;;;;;10.52;5.22;;;20.30;82.60;;;;;;5094283;28;20023;-65
2022/05/14 05:38:47;;;;;;;20.75;5.20;;;20.40;83.30;;;;;;5092967;28;20039;-66
2022/05/14 05:41:13;;;;;;;10.68;5.63;;;20.50;82.80;;;;;;5093955;28;20031;-66
2022/05/14 05:43:38;;;;;;;7.03;5.10;;;20.50;82.50;;;;;;5094037;28;20028;-66
2022/05/14 05:46:04;;;;;;;9.15;4.93;;;20.50;82.20;;;;;;5094512;28;20024;-66
2022/05/14 05:48:29;;;;;;;7.72;4.70;;;20.60;81.90;;;;;;5094294;28;20081;-66
2022/05/14 05:50:55;;;;;;;8.80;4.40;;;20.70;81.20;;;;;;5094028;28;20020;-65
2022/05/14 05:56:46;;;;;;;10.68;5.80;;;20.70;81.20;;;;;;5094021;28;20446;-65
2022/05/14 05:58:51;;;;;;;6.45;4.38;;;20.80;81.40;;;;;;5093947;28;20035;-65
2022/05/14 06:01:17;;;;;;;8.50;3.92;;;21.00;81.00;;;;;;5093803;28;20024;-65
2022/05/14 06:03:42;;;;;;;8.38;4.00;;;21.00;79.80;;;;;;5093585;28;20458;-65
2022/05/14 06:06:08;;;;;;;68.55;7.18;;;21.10;79.70;;;;;;5092456;28;20038;-63
2022/05/14 06:08:34;;;;;;;16.55;4.47;;;21.10;79.20;;;;;;5093461;28;20040;-65
2022/05/14 06:11:00;;;;;;;8.88;4.50;;;21.20;79.00;;;;;;5093522;28;20028;-65
2022/05/14 06:13:26;;;;;;;13.55;4.82;;;21.20;79.30;;;;;;5093530;28;20034;-65
2022/05/14 06:15:52;;;;;;;7.38;3.70;;;21.30;78.80;;;;;;5092451;28;20490;-65
2022/05/14 06:18:18;;;;;;;7.03;3.53;;;21.30;78.60;;;;;;5093762;28;20046;-65
2022/05/14 06:20:44;;;;;;;11.50;3.85;;;21.40;77.90;;;;;;5092843;28;20059;-65
2022/05/14 06:23:10;;;;;;;8.20;3.70;;;21.40;77.50;;;;;;5093632;28;20466;-65
2022/05/14 06:25:36;;;;;;;7.78;3.80;;;21.40;77.50;;;;;;5093126;28;20107;-65
2022/05/14 06:28:03;;;;;;;6.10;3.80;;;21.40;77.40;;;;;;5093364;28;20048;-65
2022/05/14 06:30:30;;;;;;;6.15;3.78;;;21.50;77.10;;;;;;5093493;28;20024;-65
2022/05/14 06:33:04;;;;;;;5.28;3.08;;;21.60;75.90;;;;;;5093727;28;20056;-65
2022/05/14 06:35:30;;;;;;;5.47;3.08;;;21.70;75.50;;;;;;5093505;28;20059;-65
2022/05/14 06:37:56;;;;;;;12.02;3.45;;;21.80;74.40;;;;;;5093925;28;20048;-65
2022/05/14 06:40:22;;;;;;;6.60;3.00;;;21.90;74.90;;;;;;5093525;28;20031;-64
2022/05/14 06:42:47;;;;;;;8.75;3.10;;;22.00;74.30;;;;;;5093141;28;20020;-65
2022/05/14 06:45:13;;;;;;;5.00;2.67;;;22.10;74.10;;;;;;5092657;28;20096;-65
2022/05/14 06:47:39;;;;;;;8.25;2.80;;;22.10;72.90;;;;;;5091195;28;20032;-65
2022/05/14 06:50:05;;;;;;;6.00;2.80;;;22.30;71.60;;;;;;5091014;28;20506;-65
2022/05/14 06:52:32;;;;;;;4.35;2.53;;;22.40;71.10;;;;;;5092623;28;20123;-64
2022/05/14 06:54:59;;;;;;;6.22;2.40;;;22.40;69.60;;;;;;5092424;28;20031;-65
2022/05/14 06:57:25;;;;;;;3.55;1.92;;;22.60;68.20;;;;;;5092973;28;20081;-65
2022/05/14 06:59:51;;;;;;;3.45;1.90;;;22.70;66.40;;;;;;5093532;28;20165;-65
2022/05/14 07:02:18;;;;;;;5.45;2.30;;;22.80;66.80;;;;;;5093247;28;20028;-65
2022/05/14 07:07:29;;;;;;;5.70;2.38;;;22.90;66.10;;;;;;5093578;28;20055;-65
2022/05/14 07:09:55;;;;;;;2.90;2.10;;;23.00;65.10;;;;;;5092880;28;20478;-65
2022/05/14 07:12:22;;;;;;;7.70;1.92;;;23.10;64.80;;;;;;5093320;28;20051;-70
2022/05/14 07:14:48;;;;;;;2.83;2.05;;;23.20;63.90;;;;;;5092988;28;20385;-65
2022/05/14 07:17:14;;;;;;;5.07;1.67;;;23.30;63.40;;;;;;5093304;28;20016;-65
2022/05/14 07:19:40;;;;;;;6.95;1.85;;;23.40;63.50;;;;;;5093406;28;20032;-65
2022/05/14 07:22:06;;;;;;;6.38;1.83;;;23.50;62.00;;;;;;5093282;28;20435;-64
2022/05/14 07:24:32;;;;;;;7.60;1.48;;;23.60;59.80;;;;;;5093346;28;20024;-64
2022/05/14 07:27:01;;;;;;;15.80;1.83;;;23.60;58.80;;;;;;5093011;28;20492;-65
2022/05/14 07:29:29;;;;;;;4.25;2.40;;;23.70;58.40;;;;;;5093038;28;20032;-65
2022/05/14 07:31:55;;;;;;;3.00;1.70;;;23.70;56.90;;;;;;5093022;28;20444;-64
2022/05/14 07:34:22;;;;;;;3.42;2.00;;;23.70;57.30;;;;;;5093096;28;20024;-64
2022/05/14 07:36:57;;;;;;;2.80;1.70;;;23.80;56.20;;;;;;5092855;28;20103;-64
2022/05/14 07:39:25;;;;;;;3.42;1.58;;;23.80;55.10;;;;;;5093004;28;20027;-64
2022/05/14 07:41:54;;;;;;;7.90;1.75;;;23.80;56.10;;;;;;5092784;28;20485;-64
2022/05/14 07:44:24;;;;;;;5.00;1.58;;;23.90;56.50;;;;;;5092756;28;20031;-64
2022/05/14 07:46:50;;;;;;;4.13;1.85;;;23.90;55.80;;;;;;5092965;28;20157;-64
2022/05/14 07:49:17;;;;;;;3.72;1.95;;;24.00;55.50;;;;;;5092800;28;20115;-67
2022/05/14 07:51:43;;;;;;;5.00;1.90;;;24.10;54.80;;;;;;5092652;28;20107;-65
2022/05/14 07:54:10;;;;;;;6.70;1.80;;;24.10;54.40;;;;;;5092801;28;20036;-65
2022/05/14 07:56:38;;;;;;;5.90;1.70;;;24.20;54.90;;;;;;5092894;28;20454;-65
2022/05/14 07:59:03;;;;;;;4.03;1.80;;;24.30;54.90;;;;;;5092757;28;20024;-65
2022/05/14 08:01:29;;;;;;;8.73;3.08;;;24.30;53.30;;;;;;5093428;28;20021;-64
2022/05/14 08:03:55;;;;;;;5.35;2.08;;;24.40;52.80;;;;;;5096584;28;20031;-65
2022/05/14 08:06:22;;;;;;;4.90;1.90;;;24.40;53.80;;;;;;5096421;28;20090;-65
2022/05/14 08:08:48;;;;;;;2.92;1.90;;;24.40;53.10;;;;;;5096251;28;20066;-65
2022/05/14 08:11:13;;;;;;;8.13;1.80;;;24.40;53.00;;;;;;5096316;28;20028;-65
2022/05/14 08:13:40;;;;;;;5.95;2.10;;;24.40;53.50;;;;;;5096218;28;20038;-65
2022/05/14 08:16:06;;;;;;;2.92;1.80;;;24.50;52.60;;;;;;5096153;28;20055;-65
2022/05/14 08:18:32;;;;;;;11.05;2.70;;;24.40;52.60;;;;;;5096106;28;20048;-65
2022/05/14 08:24:29;;;;;;;3.15;1.90;;;24.40;53.10;;;;;;5096105;28;20027;-65
2022/05/14 08:26:27;;;;;;;5.50;2.03;;;24.50;53.50;;;;;;5095879;28;20031;-65
2022/05/14 08:28:53;;;;;;;9.13;2.10;;;24.60;52.60;;;;;;5094787;28;20040;-65
2022/05/14 08:31:18;;;;;;;7.50;2.00;;;24.70;51.60;;;;;;5096184;28;20085;-65
2022/05/14 08:33:44;;;;;;;11.93;2.30;;;24.70;51.90;;;;;;5095902;28;20025;-65
2022/05/14 08:36:09;;;;;;;5.35;2.08;;;24.80;51.50;;;;;;5095964;28;20034;-65
2022/05/14 08:38:36;;;;;;;6.78;2.80;;;24.80;52.40;;;;;;5096019;28;20099;-65
2022/05/14 08:41:01;;;;;;;7.07;3.05;;;24.80;51.30;;;;;;5095918;28;20115;-65
2022/05/14 08:43:32;;;;;;;7.32;2.28;;;24.90;51.40;;;;;;5095927;28;20099;-65
2022/05/14 08:45:59;;;;;;;4.85;2.10;;;24.90;50.90;;;;;;5095587;28;20566;-65
2022/05/14 08:48:28;;;;;;;2.78;1.90;;;24.90;52.70;;;;;;5094271;28;20382;-65
2022/05/14 08:51:03;;;;;;;3.63;1.98;;;25.10;53.30;;;;;;5095744;28;20081;-65
2022/05/14 08:53:30;;;;;;;6.07;2.25;;;25.20;52.20;;;;;;5095606;28;20059;-65
2022/05/14 08:56:05;;;;;;;1.70;1.60;;;25.30;52.50;;;;;;5095628;28;20378;-65
2022/05/14 08:58:45;;;;;;;2.70;1.63;;;25.30;50.90;;;;;;5095464;28;20020;-65
2022/05/14 09:01:14;;;;;;;6.60;2.25;;;25.40;51.50;;;;;;5095649;28;20080;-65
2022/05/14 09:03:43;;;;;;;9.60;2.30;;;25.50;51.90;;;;;;5095610;28;20052;-65
2022/05/14 09:06:09;;;;;;;4.30;2.30;;;25.60;50.10;;;;;;5095253;28;20020;-65
2022/05/14 09:08:35;;;;;;;5.65;2.10;;;25.70;51.80;;;;;;5094811;28;20044;-65
2022/05/14 09:11:11;;;;;;;4.00;2.22;;;25.70;49.80;;;;;;5095296;28;20028;-65
2022/05/14 09:13:46;;;;;;;7.63;2.30;;;25.80;51.40;;;;;;5095344;28;20488;-65
2022/05/14 09:16:31;;;;;;;5.15;2.35;;;25.90;50.80;;;;;;5095189;28;20016;-65
2022/05/14 09:18:57;;;;;;;6.82;2.70;;;26.00;49.90;;;;;;5095386;28;20119;-65
2022/05/14 09:21:35;;;;;;;8.93;2.25;;;26.10;50.50;;;;;;5094983;28;20031;-65
2022/05/14 09:24:14;;;;;;;3.90;1.60;;;26.10;51.50;;;;;;5094907;28;20036;-65
2022/05/14 09:26:41;;;;;;;3.95;2.05;;;26.10;48.70;;;;;;5094917;28;20020;-65
2022/05/14 09:29:27;;;;;;;3.70;1.77;;;26.20;49.90;;;;;;5094696;28;20080;-65
2022/05/14 09:31:58;;;;;;;6.28;2.55;;;26.20;48.90;;;;;;5094963;28;20081;-65
2022/05/14 09:34:24;;;;;;;4.75;1.75;;;26.20;49.50;;;;;;5094921;28;20050;-68
2022/05/14 09:36:51;;;;;;;3.85;1.90;;;26.30;48.00;;;;;;5094490;28;20489;-65
2022/05/14 09:39:22;;;;;;;10.80;1.70;;;26.30;49.10;;;;;;5094603;28;20028;-65
2022/05/14 09:41:51;;;;;;;3.97;1.83;;;26.40;49.50;;;;;;5094643;28;20024;-65
2022/05/14 09:44:47;;;;;;;5.63;1.88;;;26.50;49.00;;;;;;5094407;28;20262;-65
2022/05/14 09:47:31;;;;;;;6.57;2.00;;;26.50;49.50;;;;;;5094528;28;20474;-65
2022/05/14 09:50:03;;;;;;;6.60;1.95;;;26.50;48.20;;;;;;5094281;28;20047;-65
2022/05/14 09:52:32;;;;;;;3.88;2.08;;;26.60;50.40;;;;;;5094298;28;20048;-68
2022/05/14 09:55:04;;;;;;;3.25;1.90;;;26.60;50.20;;;;;;5094250;28;20047;-65
2022/05/14 09:57:44;;;;;;;2.88;1.90;;;26.60;48.60;;;;;;5094288;28;20024;-68
2022/05/14 10:00:21;;;;;;;5.45;2.25;;;26.60;48.50;;;;;;5094319;28;20073;-65
2022/05/14 10:03:12;;;;;;;4.20;2.00;;;26.70;49.30;;;;;;5093903;28;20394;-66
2022/05/14 10:05:49;;;;;;;5.88;1.80;;;26.80;49.30;;;;;;5094190;28;20029;-65
2022/05/14 10:08:36;;;;;;;7.32;2.58;;;26.90;49.40;;;;;;5093886;28;20067;-65
2022/05/14 10:11:09;;;;;;;4.50;2.20;;;26.90;48.30;;;;;;5094357;28;20381;-65
2022/05/14 10:14:05;;;;;;;6.43;2.15;;;27.00;48.80;;;;;;5093885;28;20441;-65
2022/05/14 10:16:30;;;;;;;2.88;1.92;;;27.10;47.50;;;;;;5093883;28;20039;-65
2022/05/14 10:19:21;;;;;;;8.32;2.30;;;27.20;48.20;;;;;;5093789;28;20016;-65
2022/05/14 10:22:12;;;;;;;6.45;1.88;;;27.30;47.60;;;;;;5093619;28;20096;-65
2022/05/14 10:27:55;;;;;;;7.90;1.92;;;27.40;46.70;;;;;;5093710;28;20043;-65
2022/05/14 10:30:53;;;;;;;2.45;1.85;;;27.50;46.90;;;;;;5093568;28;20036;-65
2022/05/14 10:33:27;;;;;;;4.90;1.80;;;27.60;46.60;;;;;;5093554;28;20028;-65
2022/05/14 10:36:04;;;;;;;5.43;2.15;;;27.70;45.50;;;;;;5093525;28;20027;-65
2022/05/14 10:39:09;;;;;;;5.53;2.10;;;27.70;46.60;;;;;;5093454;28;20020;-65
2022/05/14 10:41:45;;;;;;;4.00;1.83;;;27.70;46.40;;;;;;5093524;28;20081;-65
2022/05/14 10:44:33;;;;;;;6.78;1.88;;;27.80;46.90;;;;;;5093263;28;20050;-65
2022/05/14 10:47:04;;;;;;;3.05;2.05;;;27.70;46.70;;;;;;5093464;28;20097;-65
2022/05/14 10:49:48;;;;;;;3.35;1.70;;;27.70;45.70;;;;;;5093325;28;20068;-64
2022/05/14 10:52:16;;;;;;;2.65;1.55;;;27.80;45.90;;;;;;5093438;28;20024;-65
2022/05/14 10:54:43;;;;;;;3.55;1.90;;;27.80;45.10;;;;;;5093546;28;20485;-65
2022/05/14 10:57:15;;;;;;;4.05;1.85;;;27.90;47.20;;;;;;5093231;28;20032;-65
2022/05/14 11:00:13;;;;;;;4.53;2.20;;;28.00;46.00;;;;;;5093571;28;20032;-65
2022/05/14 11:03:09;;;;;;;4.63;1.60;;;28.10;45.60;;;;;;5093746;28;20107;-65
2022/05/14 11:06:00;;;;;;;4.53;1.67;;;28.20;44.30;;;;;;5093197;28;20020;-65
2022/05/14 11:08:31;;;;;;;3.63;1.90;;;28.20;46.10;;;;;;5087326;28;20391;-65
2022/05/14 11:11:08;;;;;;;3.72;1.73;;;28.30;46.30;;;;;;5093167;28;20456;-65
2022/05/14 11:13:35;;;;;;;7.10;1.90;;;28.40;45.60;;;;;;5092978;28;20115;-65
2022/05/14 11:16:05;;;;;;;5.47;1.88;;;28.50;46.20;;;;;;5093117;28;20047;-65
2022/05/14 11:18:53;;;;;;;3.10;1.88;;;28.60;45.00;;;;;;5093288;28;20469;-68
2022/05/14 11:21:31;;;;;;;3.88;1.92;;;28.70;46.00;;;;;;5092310;28;20028;-65
2022/05/14 11:23:59;;;;;;;2.83;1.67;;;28.70;45.50;;;;;;5092824;28;20032;-66
2022/05/14 11:26:26;;;;;;;6.50;1.92;;;28.80;46.20;;;;;;5092804;28;20441;-65
2022/05/14 11:28:59;;;;;;;2.17;1.63;;;28.90;44.80;;;;;;5091376;28;20489;-65
2022/05/14 11:31:29;;;;;;;3.65;1.65;;;28.80;43.80;;;;;;5091817;28;20016;-66
2022/05/14 11:33:59;;;;;;;3.67;1.70;;;28.90;44.40;;;;;;5092396;28;20077;-66
2022/05/14 11:36:43;;;;;;;5.15;1.90;;;28.80;44.70;;;;;;5094189;28;20024;-65
2022/05/14 11:39:23;;;;;;;3.90;1.60;;;28.70;45.80;;;;;;5096727;28;20032;-65
2022/05/14 11:42:09;;;;;;;2.67;1.52;;;28.70;44.80;;;;;;5096673;28;20503;-65
2022/05/14 11:44:47;;;;;;;5.93;1.80;;;28.80;43.90;;;;;;5096499;28;20020;-65
2022/05/14 11:47:41;;;;;;;2.53;1.77;;;28.80;45.20;;;;;;5096630;28;20028;-66
2022/05/14 11:50:08;;;;;;;4.45;2.35;;;28.80;44.90;;;;;;5096344;28;20039;-65
2022/05/14 11:52:42;;;;;;;4.93;1.73;;;28.90;45.00;;;;;;5096329;28;20103;-65
2022/05/14 11:55:19;;;;;;;5.57;1.70;;;29.00;44.30;;;;;;5096337;28;20030;-65
2022/05/14 11:58:24;;;;;;;4.90;1.83;;;29.20;44.60;;;;;;5096479;28;20024;-65
2022/05/14 12:00:52;;;;;;;4.45;2.28;;;29.20;44.90;;;;;;5096138;28;20028;-66
2022/05/14 12:03:39;;;;;;;3.95;2.08;;;29.30;44.30;;;;;;5096397;28;20035;-65
2022/05/14 12:06:35;;;;;;;3.97;1.98;;;29.40;43.10;;;;;;5094192;28;20048;-64
2022/05/14 12:09:29;;;;;;;4.28;1.95;;;29.30;41.60;;;;;;5093606;28;20055;-64
2022/05/14 12:12:08;;;;;;;3.70;1.83;;;29.30;43.10;;;;;;5094456;28;20519;-64
2022/05/14 12:14:35;;;;;;;3.85;1.63;;;29.30;45.10;;;;;;5095905;28;20077;-65
2022/05/14 12:17:04;;;;;;;5.43;2.00;;;29.30;44.60;;;;;;5096038;28;20062;-64
2022/05/14 12:19:37;;;;;;;5.45;2.10;;;29.30;43.40;;;;;;5096291;28;20024;-65
2022/05/14 12:22:14;;;;;;;6.93;2.17;;;29.30;44.80;;;;;;5095906;28;20449;-68
2022/05/14 12:24:40;;;;;;;2.80;2.05;;;29.30;44.70;;;;;;5095809;28;20062;-66
2022/05/14 12:27:18;;;;;;;5.20;1.83;;;29.30;44.40;;;;;;5095236;28;20023;-68
2022/05/14 12:30:03;;;;;;;4.90;1.90;;;29.10;41.20;;;;;;5095565;28;20043;-65
2022/05/14 12:35:24;;;;;;;5.18;2.08;;;28.80;46.10;;;;;;5095607;28;20088;-65
2022/05/14 12:37:54;;;;;;;4.75;1.92;;;28.70;45.70;;;;;;5095661;28;20035;-65
2022/05/14 12:40:30;;;;;;;7.55;2.25;;;28.60;45.50;;;;;;5094916;28;20020;-65
2022/05/14 12:42:58;;;;;;;3.05;2.10;;;28.50;45.40;;;;;;5095017;28;20024;-65
2022/05/14 12:45:40;;;;;;;10.00;1.92;;;28.30;45.50;;;;;;5095517;28;20101;-65
2022/05/14 12:48:08;;;;;;;5.60;2.30;;;28.20;45.50;;;;;;5093874;28;20397;-65
2022/05/14 12:50:33;;;;;;;6.93;2.17;;;28.20;46.40;;;;;;5092721;28;20047;-65
2022/05/14 12:53:09;;;;;;;3.78;1.90;;;28.20;48.00;;;;;;5093033;28;20035;-65
2022/05/14 12:55:41;;;;;;;4.45;1.80;;;28.10;47.80;;;;;;5095448;28;20499;-65
2022/05/14 12:58:07;;;;;;;;;;;28.10;46.90;;;;;;5094328;28;20111;-65
2022/05/14 13:00:37;;;;;;;3.17;1.95;;;28.10;48.20;;;;;;5092628;28;20008;-65
2022/05/14 13:03:08;;;;;;;4.13;2.15;;;28.00;48.90;;;;;;5093111;28;20085;-65
2022/05/14 13:05:40;;;;;;;8.27;2.20;;;28.00;48.70;;;;;;5095185;28;20027;-66
2022/05/14 13:08:13;;;;;;;4.53;2.13;;;28.00;48.70;;;;;;5094959;28;20103;-65
2022/05/14 13:11:10;;;;;;;3.58;2.08;;;27.90;49.20;;;;;;5094904;28;20474;-65
2022/05/14 13:13:39;;;;;;;9.55;2.15;;;27.90;48.90;;;;;;5092744;28;20036;-65
2022/05/14 13:16:26;;;;;;;5.53;1.98;;;27.80;48.30;;;;;;5094650;28;20050;-67
2022/05/14 13:19:01;;;;;;;5.50;2.03;;;27.80;48.70;;;;;;5095038;28;20405;-65
2022/05/14 13:21:29;;;;;;;4.60;1.80;;;27.70;49.30;;;;;;5095030;28;20024;-65